createdAt,value
2023-01-08T00:04:11.968Z,100766.56
2023-01-08T00:09:14.267Z,100757.78
2023-01-08T00:14:16.374Z,100767.31
2023-01-08T00:19:19.122Z,100764.09
2023-01-08T00:24:21.243Z,100762.25
2023-01-08T00:29:23.367Z,100756.88
2023-01-08T00:34:25.913Z,100758.94
2023-01-08T00:39:28.028Z,100741.22
2023-01-08T00:44:30.165Z,100734.91
2023-01-08T00:49:32.274Z,100735.75
2023-01-08T00:54:34.398Z,100732.41
2023-01-08T00:59:36.510Z,100737.12
2023-01-08T01:04:38.711Z,100732.72
2023-01-08T01:09:40.804Z,100740.47
2023-01-08T01:14:42.986Z,100749.50
2023-01-08T01:19:45.147Z,100748.81
2023-01-08T01:24:47.250Z,100747.00
2023-01-08T01:29:49.396Z,100742.88
2023-01-08T01:34:52.028Z,100739.38
2023-01-08T01:39:56.175Z,100737.47
2023-01-08T01:44:58.401Z,100730.00
2023-01-08T01:50:20.287Z,100716.84
2023-01-08T01:55:22.544Z,100710.59
2023-01-08T02:00:26.367Z,100696.38
2023-01-08T02:05:39.153Z,100691.22
2023-01-08T02:11:06.773Z,100678.84
2023-01-08T02:16:38.233Z,100671.22
2023-01-08T02:22:02.743Z,100670.31
2023-01-08T02:27:08.197Z,100673.75
2023-01-08T02:32:10.609Z,100675.13
2023-01-08T02:37:12.928Z,100672.97
2023-01-08T02:42:29.866Z,100659.06
2023-01-08T02:47:44.729Z,100669.06
2023-01-08T02:53:03.183Z,100661.97
2023-01-08T02:58:06.264Z,100659.22
2023-01-08T03:03:19.697Z,100658.06
2023-01-08T03:08:23.462Z,100651.75
2023-01-08T03:13:33.022Z,100655.00
2023-01-08T03:18:41.146Z,100632.59
2023-01-08T03:23:45.370Z,100625.75
2023-01-08T03:28:52.944Z,100632.38
2023-01-08T03:33:56.479Z,100637.53
2023-01-08T03:39:12.412Z,100641.50
2023-01-08T03:44:14.654Z,100621.94
2023-01-08T03:49:17.792Z,100623.31
2023-01-08T03:54:23.820Z,100615.63
2023-01-08T03:59:25.965Z,100598.06
2023-01-08T04:04:28.214Z,100598.66
2023-01-08T04:09:31.673Z,100596.75
2023-01-08T04:14:33.791Z,100605.12
2023-01-08T04:19:35.843Z,100606.34
2023-01-08T04:24:37.996Z,100606.03
2023-01-08T04:29:40.098Z,100611.25
2023-01-08T04:34:42.213Z,100599.22
2023-01-08T04:39:44.311Z,100607.53
2023-01-08T04:44:46.404Z,100604.53
2023-01-08T04:49:48.522Z,100603.13
2023-01-08T04:54:50.635Z,100610.50
2023-01-08T04:59:52.893Z,100620.19
2023-01-08T05:04:55.007Z,100615.56
2023-01-08T05:09:57.108Z,100613.37
2023-01-08T05:14:59.216Z,100615.56
2023-01-08T05:20:01.364Z,100607.38
2023-01-08T05:25:03.553Z,100601.53
2023-01-08T05:30:06.457Z,100583.47
2023-01-08T05:35:09.154Z,100588.63
2023-01-08T05:40:11.846Z,100582.34
2023-01-08T05:45:15.730Z,100589.37
2023-01-08T05:50:17.881Z,100591.12
2023-01-08T05:55:20.001Z,100584.47
2023-01-08T06:00:22.252Z,100577.69
2023-01-08T06:05:24.519Z,100573.06
2023-01-08T06:10:27.326Z,100564.84
2023-01-08T06:15:29.378Z,100564.34
2023-01-08T06:20:31.462Z,100564.09
2023-01-08T06:25:33.665Z,100556.72
2023-01-08T06:30:38.412Z,100568.16
2023-01-08T06:35:40.544Z,100562.37
2023-01-08T06:40:42.963Z,100555.81
2023-01-08T06:45:45.052Z,100553.31
2023-01-08T06:50:47.160Z,100543.31
2023-01-08T06:55:50.744Z,100557.66
2023-01-08T07:00:52.886Z,100560.41
2023-01-08T07:05:55.924Z,100559.13
2023-01-08T07:11:03.680Z,100560.56
2023-01-08T07:16:09.883Z,100558.06
2023-01-08T07:21:12.025Z,100563.06
2023-01-08T07:26:14.160Z,100565.78
2023-01-08T07:31:16.351Z,100560.47
2023-01-08T07:36:22.420Z,100559.63
2023-01-08T07:41:24.588Z,100554.75
2023-01-08T07:46:26.890Z,100556.66
2023-01-08T07:51:29.934Z,100560.62
2023-01-08T07:56:32.180Z,100562.22
2023-01-08T08:01:34.388Z,100551.12
2023-01-08T08:06:36.551Z,100545.41
2023-01-08T08:11:38.732Z,100542.56
2023-01-08T08:16:40.866Z,100543.22
2023-01-08T08:21:42.963Z,100533.59
2023-01-08T08:26:45.092Z,100527.41
2023-01-08T08:31:47.237Z,100522.59
2023-01-08T08:36:49.615Z,100511.63
2023-01-08T08:41:52.053Z,100506.38
2023-01-08T08:46:54.270Z,100506.94
2023-01-08T08:51:56.331Z,100497.44
2023-01-08T08:56:58.437Z,100500.72
2023-01-08T09:02:00.669Z,100507.06
2023-01-08T09:07:03.189Z,100498.16
2023-01-08T09:12:05.562Z,100504.97
2023-01-08T09:17:07.791Z,100495.19
2023-01-08T09:22:09.859Z,100497.09
2023-01-08T09:27:12.254Z,100492.94
2023-01-08T09:32:14.459Z,100491.81
2023-01-08T09:37:16.852Z,100483.12
2023-01-08T09:42:23.048Z,100479.69
2023-01-08T09:47:33.118Z,100477.53
2023-01-08T09:52:35.224Z,100471.13
2023-01-08T09:57:37.420Z,100455.53
2023-01-08T10:02:40.993Z,100431.47
2023-01-08T10:07:44.401Z,100423.31
2023-01-08T10:12:47.545Z,100423.41
2023-01-08T10:18:03.843Z,100394.84
2023-01-08T10:23:14.254Z,100388.72
2023-01-08T10:28:30.960Z,100393.00
2023-01-08T10:33:44.891Z,100381.84
2023-01-08T10:39:09.525Z,100369.78
2023-01-08T10:44:21.514Z,100357.44
2023-01-08T10:49:28.908Z,100354.38
2023-01-08T10:54:36.517Z,100352.06
2023-01-08T10:59:42.766Z,100352.97
2023-01-08T11:04:51.481Z,100349.41
2023-01-08T11:09:54.908Z,100337.97
2023-01-08T11:14:57.436Z,100335.84
2023-01-08T11:20:20.971Z,100312.06
2023-01-08T11:25:30.140Z,100300.25
2023-01-08T11:30:36.413Z,100296.69
2023-01-08T11:35:48.476Z,100283.00
2023-01-08T11:40:52.102Z,100276.41
2023-01-08T11:46:16.698Z,100259.41
2023-01-08T11:51:30.988Z,100256.38
2023-01-08T11:56:46.008Z,100246.75
2023-01-08T12:02:21.202Z,100246.72
2023-01-08T12:07:26.300Z,100240.16
2023-01-08T12:12:47.229Z,100238.69
2023-01-08T12:18:17.453Z,100237.81
2023-01-08T12:23:57.899Z,100235.19
2023-01-08T12:29:07.227Z,100229.94
2023-01-08T12:34:21.589Z,100226.63
2023-01-08T12:39:34.086Z,100224.16
2023-01-08T12:44:37.743Z,100223.03
2023-01-08T12:50:09.761Z,100216.75
2023-01-08T12:55:27.679Z,100218.44
2023-01-08T13:00:46.007Z,100201.94
2023-01-08T13:05:49.376Z,100206.09
2023-01-08T13:10:54.366Z,100205.53
2023-01-08T13:16:19.028Z,100203.88
2023-01-08T13:21:30.984Z,100205.53
2023-01-08T13:26:36.744Z,100194.31
2023-01-08T13:31:40.888Z,100203.94
2023-01-08T13:36:43.071Z,100196.22
2023-01-08T13:42:29.409Z,100192.66
2023-01-08T13:47:34.546Z,100198.72
2023-01-08T13:52:42.689Z,100190.47
2023-01-08T13:57:49.946Z,100180.91
2023-01-08T14:02:54.988Z,100175.69
2023-01-08T14:14:13.896Z,100198.72
2023-01-08T14:19:19.510Z,100190.78
2023-01-08T14:24:24.911Z,100196.53
2023-01-08T14:29:30.887Z,100168.22
2023-01-08T14:34:37.742Z,100183.28
2023-01-08T14:39:39.979Z,100196.34
2023-01-08T14:44:46.320Z,100202.91
2023-01-08T14:49:53.806Z,100193.28
2023-01-08T14:55:03.441Z,100195.16
2023-01-08T15:00:09.116Z,100183.91
2023-01-08T15:05:23.312Z,100165.44
2023-01-08T15:10:40.655Z,100174.44
2023-01-08T15:15:57.716Z,100175.56
2023-01-08T15:20:59.995Z,100176.91
2023-01-08T15:26:02.347Z,100174.44
2023-01-08T15:31:04.575Z,100163.97
2023-01-08T15:36:06.922Z,100138.72
2023-01-08T15:41:14.337Z,100147.31
2023-01-08T15:46:16.598Z,100127.47
2023-01-08T15:51:18.807Z,100143.69
2023-01-08T15:56:20.968Z,100152.22
2023-01-08T16:01:23.318Z,100131.63
2023-01-08T16:06:25.890Z,100139.25
2023-01-08T16:11:28.286Z,100143.66
2023-01-08T16:16:30.808Z,100150.78
2023-01-08T16:21:33.012Z,100139.00
2023-01-08T16:26:35.753Z,100131.06
2023-01-08T16:31:38.565Z,100125.91
2023-01-08T16:36:41.162Z,100126.19
2023-01-08T16:41:43.921Z,100126.72
2023-01-08T16:46:47.212Z,100118.19
2023-01-08T16:51:50.459Z,100098.19
2023-01-08T16:56:55.906Z,100100.12
2023-01-08T17:01:58.050Z,100117.16
2023-01-08T17:07:00.247Z,100109.53
2023-01-08T17:12:02.667Z,100102.13
2023-01-08T17:17:04.889Z,100108.72
2023-01-08T17:22:07.103Z,100100.22
2023-01-08T17:27:11.694Z,100100.81
2023-01-08T17:32:14.445Z,100103.25
2023-01-08T17:37:16.824Z,100092.59
2023-01-08T17:42:24.996Z,100088.22
2023-01-08T17:47:29.946Z,100084.41
2023-01-08T17:52:32.797Z,100086.31
2023-01-08T17:57:35.055Z,100083.31
2023-01-08T18:02:37.364Z,100086.28
2023-01-08T18:07:39.655Z,100077.25
2023-01-08T18:12:41.869Z,100063.81
2023-01-08T18:17:44.069Z,100076.44
2023-01-08T18:22:46.815Z,100074.78
2023-01-08T18:27:49.043Z,100076.19
2023-01-08T18:32:51.280Z,100067.16
2023-01-08T18:37:55.543Z,100072.13
2023-01-08T18:42:57.799Z,100085.81
2023-01-08T18:48:00.010Z,100083.06
2023-01-08T18:53:04.668Z,100073.88
2023-01-08T18:58:06.937Z,100070.31
2023-01-08T19:03:10.468Z,100073.34
2023-01-08T19:08:12.686Z,100078.25
2023-01-08T19:13:14.982Z,100058.19
2023-01-08T19:18:18.457Z,100052.41
2023-01-08T19:23:20.882Z,100072.72
2023-01-08T19:28:24.006Z,100069.97
2023-01-08T19:33:26.405Z,100069.97
2023-01-08T19:38:28.945Z,100062.53
2023-01-08T19:43:43.171Z,100045.84
2023-01-08T19:48:45.632Z,100043.91
2023-01-08T19:53:49.331Z,100053.25
2023-01-08T19:58:51.505Z,100050.53
2023-01-08T20:03:54.440Z,100006.41
2023-01-08T20:09:06.181Z,100034.09
2023-01-08T20:14:08.300Z,100022.03
2023-01-08T20:19:10.402Z,100037.13
2023-01-08T20:24:14.609Z,100023.97
2023-01-08T20:29:18.230Z,100018.50
2023-01-08T20:34:20.346Z,100014.72
2023-01-08T20:39:22.992Z,100023.72
2023-01-08T20:44:25.435Z,100006.16
2023-01-08T20:49:27.992Z,99999.78
2023-01-08T20:54:30.524Z,100003.03
2023-01-08T20:59:32.787Z,100004.41
2023-01-08T21:04:38.057Z,100001.09
2023-01-08T21:09:40.467Z,100002.00
2023-01-08T21:14:44.218Z,100000.44
2023-01-08T21:19:46.636Z,99987.81
2023-01-08T21:24:48.974Z,99996.06
2023-01-08T21:29:52.421Z,99986.50
2023-01-08T21:34:54.538Z,99986.19
2023-01-08T21:39:59.709Z,99970.31
2023-01-08T21:45:20.510Z,99981.81
2023-01-08T21:50:24.985Z,99977.16
2023-01-08T21:55:27.251Z,99966.16
2023-01-08T22:00:29.531Z,99960.16
2023-01-08T22:05:31.601Z,99960.16
2023-01-08T22:10:33.732Z,99948.91
2023-01-08T22:15:35.878Z,99952.22
2023-01-08T22:20:38.064Z,99947.56
2023-01-08T22:25:41.055Z,99958.75
2023-01-08T22:30:43.551Z,99945.91
2023-01-08T22:35:46.351Z,99934.91
2023-01-08T22:40:48.422Z,99923.13
2023-01-08T22:45:58.147Z,99917.66
2023-01-08T22:51:03.661Z,99904.81
2023-01-08T22:56:12.381Z,99904.53
2023-01-08T23:01:21.203Z,99908.38
2023-01-08T23:06:25.245Z,99899.59
2023-01-08T23:11:27.751Z,99882.03
2023-01-08T23:16:30.288Z,99885.91
2023-01-08T23:21:32.399Z,99881.50
2023-01-08T23:26:34.510Z,99874.91
2023-01-08T23:31:38.345Z,99872.22
2023-01-08T23:36:40.930Z,99865.59
2023-01-08T23:41:43.069Z,99862.31
2023-01-08T23:46:45.180Z,99865.31
2023-01-08T23:51:47.326Z,99876.78
2023-01-08T23:56:49.721Z,99871.56
